Time;durP1;ratioP1;P1;durP2;ratioP2;P2;SDS_P1;SDS_P2;PMS_P1;PMS_P2;Temp;Humidity;BMP_temperature;BMP_pressure;BME280_temperature;BME280_humidity;BME280_pressure;Samples;Min_cycle;Max_cycle;Signal;HPM_P1;HPM_P2
2023/01/20 00:01:04;;;;;;;51.83;24.33;;;;;;;0.05;100.00;101026.03;5023249;28;20053;-68
2023/01/20 00:03:30;;;;;;;48.40;21.90;;;;;;;0.01;100.00;101026.59;5021969;28;20352;-68
2023/01/20 00:05:55;;;;;;;52.85;20.88;;;;;;;-0.01;100.00;101028.16;5021202;28;20464;-68
2023/01/20 00:08:20;;;;;;;50.58;21.50;;;;;;;-0.02;100.00;101034.06;5022675;28;20027;-68
2023/01/20 00:10:46;;;;;;;49.08;21.00;;;;;;;-0.07;100.00;101035.44;5023755;28;20021;-68
2023/01/20 00:13:11;;;;;;;50.13;20.20;;;;;;;-0.10;100.00;101041.22;5024539;28;20032;-68
2023/01/20 00:15:37;;;;;;;49.78;21.50;;;;;;;-0.09;100.00;101050.66;5022329;28;20483;-68
2023/01/20 00:18:02;;;;;;;57.58;22.65;;;;;;;-0.10;100.00;101041.22;5024223;28;20029;-68
2023/01/20 00:20:27;;;;;;;57.35;23.20;;;;;;;-0.11;100.00;101043.69;5023534;28;20373;-68
2023/01/20 00:22:52;;;;;;;57.10;22.30;;;;;;;-0.12;100.00;101047.03;5023388;28;20061;-68
2023/01/20 00:25:19;;;;;;;60.53;23.98;;;;;;;-0.13;100.00;101051.25;5022800;28;20491;-68
2023/01/20 00:27:45;;;;;;;60.83;24.00;;;;;;;-0.14;100.00;101051.16;5023111;28;20479;-68
2023/01/20 00:30:11;;;;;;;59.70;23.55;;;;;;;-0.16;100.00;101055.25;5022147;28;20033;-68
2023/01/20 00:32:38;;;;;;;59.35;23.38;;;;;;;-0.17;100.00;101059.50;5022502;28;20044;-68
2023/01/20 00:35:04;;;;;;;60.42;23.70;;;;;;;-0.20;100.00;101062.75;5022045;28;20021;-68
2023/01/20 00:37:30;;;;;;;52.45;21.15;;;;;;;-0.21;100.00;101058.38;5023563;28;20529;-64
2023/01/20 00:39:55;;;;;;;62.53;27.50;;;;;;;-0.21;100.00;101062.63;5022021;28;20125;-64
2023/01/20 00:42:20;;;;;;;52.88;20.73;;;;;;;-0.19;100.00;101069.66;5022301;28;20036;-64
2023/01/20 00:44:45;;;;;;;52.97;21.02;;;;;;;-0.20;100.00;101065.28;5023510;28;20059;-64
2023/01/20 00:47:11;;;;;;;58.53;22.65;;;;;;;-0.19;100.00;101067.09;5023005;28;20056;-64
2023/01/20 00:49:36;;;;;;;55.10;20.77;;;;;;;-0.20;100.00;101072.09;5022087;28;20056;-64
2023/01/20 00:52:01;;;;;;;57.58;22.70;;;;;;;-0.20;100.00;101069.53;5021864;28;20025;-64
2023/01/20 00:54:27;;;;;;;83.97;32.72;;;;;;;-0.19;100.00;101067.09;5019993;28;20032;-64
2023/01/20 00:56:52;;;;;;;68.20;26.52;;;;;;;-0.19;100.00;101064.53;5021604;28;20646;-64
2023/01/20 00:59:17;;;;;;;60.42;22.42;;;;;;;-0.18;100.00;101063.72;5021043;28;20025;-64
2023/01/20 01:01:44;;;;;;;59.38;23.58;;;;;;;-0.18;100.00;101062.84;5021689;28;20053;-64
2023/01/20 01:04:10;;;;;;;66.10;26.25;;;;;;;-0.19;100.00;101072.22;5026802;28;20480;-64
2023/01/20 01:06:35;;;;;;;58.90;21.88;;;;;;;-0.19;100.00;101069.66;5028231;28;20031;-64
2023/01/20 01:09:00;;;;;;;62.30;21.80;;;;;;;-0.18;100.00;101067.97;5028276;28;20128;-64
2023/01/20 01:11:26;;;;;;;60.20;22.75;;;;;;;-0.18;100.00;101071.41;5027242;28;20569;-64
2023/01/20 01:13:54;;;;;;;59.38;20.58;;;;;;;-0.20;100.00;101085.78;5028888;28;20036;-63
2023/01/20 01:16:19;;;;;;;58.30;23.13;;;;;;;-0.20;100.00;101088.34;5029005;28;20033;-64
2023/01/20 01:18:45;;;;;;;54.72;21.52;;;;;;;-0.20;100.00;101093.47;5028307;28;20033;-64
2023/01/20 01:21:13;;;;;;;57.47;20.95;;;;;;;-0.21;100.00;101099.34;5029456;28;20029;-64
2023/01/20 01:23:38;;;;;;;56.95;21.27;;;;;;;-0.22;100.00;101101.81;5028463;28;20025;-64
2023/01/20 01:26:04;;;;;;;51.15;20.05;;;;;;;-0.26;100.00;101100.72;5028122;28;20290;-64
2023/01/20 01:28:29;;;;;;;52.05;19.45;;;;;;;-0.28;100.00;101104.81;5028093;28;20032;-64
2023/01/20 01:30:58;;;;;;;52.45;19.17;;;;;;;-0.30;100.00;101100.41;5026007;28;20063;-64
2023/01/20 01:33:23;;;;;;;53.35;19.17;;;;;;;-0.35;100.00;101105.16;5027370;28;20081;-64
2023/01/20 01:36:00;;;;;;;54.75;19.65;;;;;;;-0.37;100.00;101101.63;5029196;28;20041;-64
2023/01/20 01:38:26;;;;;;;49.08;17.60;;;;;;;-0.39;100.00;101098.94;5028909;28;20029;-64
2023/01/20 01:40:53;;;;;;;52.85;18.38;;;;;;;-0.39;100.00;101109.19;5027094;28;20033;-64
2023/01/20 01:43:24;;;;;;;53.53;17.77;;;;;;;-0.39;100.00;101108.28;5027855;28;20029;-64
2023/01/20 01:45:50;;;;;;;52.45;20.88;;;;;;;-0.38;100.00;101104.94;5029004;28;20475;-64
2023/01/20 01:48:20;;;;;;;58.60;19.42;;;;;;;-0.36;100.00;101111.09;5027456;28;20084;-64
2023/01/20 01:50:51;;;;;;;51.60;18.67;;;;;;;-0.33;100.00;101113.88;5028193;28;20026;-64
2023/01/20 01:53:17;;;;;;;48.10;17.30;;;;;;;-0.29;100.00;101114.97;5027590;28;20025;-64
2023/01/20 01:55:48;;;;;;;57.00;20.20;;;;;;;-0.30;100.00;101116.63;5026996;28;20025;-64
2023/01/20 01:58:16;;;;;;;52.35;18.35;;;;;;;-0.27;100.00;101119.41;5026812;28;20037;-64
2023/01/20 02:00:43;;;;;;;52.58;17.38;;;;;;;-0.26;100.00;101118.66;5028898;28;20053;-64
2023/01/20 02:03:09;;;;;;;55.15;18.70;;;;;;;-0.24;100.00;101113.63;5029240;28;20045;-64
2023/01/20 02:05:36;;;;;;;52.67;18.55;;;;;;;-0.22;100.00;101120.66;5028973;28;20139;-64
2023/01/20 02:08:02;;;;;;;49.30;17.95;;;;;;;-0.22;100.00;101118.09;5029313;28;20487;-64
2023/01/20 02:10:27;;;;;;;50.78;18.50;;;;;;;-0.22;100.00;101112.97;5028846;28;20495;-64
2023/01/20 02:12:53;;;;;;;56.05;18.48;;;;;;;-0.20;100.00;101121.63;5029265;28;20036;-64
2023/01/20 02:15:24;;;;;;;59.33;20.20;;;;;;;-0.21;100.00;101117.28;5026026;28;20665;-64
2023/01/20 02:17:51;;;;;;;53.90;19.25;;;;;;;-0.20;100.00;101120.75;5026596;28;20464;-64
2023/01/20 02:20:48;;;;;;;54.70;18.88;;;;;;;-0.19;100.00;101115.75;5025255;28;20033;-64
2023/01/20 02:23:32;;;;;;;52.05;18.30;;;;;;;-0.19;100.00;101113.19;5026405;28;20038;-64
2023/01/20 02:26:12;;;;;;;61.05;19.95;;;;;;;-0.19;100.00;101117.38;5025277;28;20030;-64
2023/01/20 02:29:02;;;;;;;58.40;19.05;;;;;;;-0.22;100.00;101120.66;5025912;28;20033;-64
2023/01/20 02:32:14;;;;;;;54.60;18.90;;;;;;;-0.24;100.00;101122.19;5024097;28;20459;-64
2023/01/20 02:35:08;;;;;;;58.17;18.80;;;;;;;-0.23;100.00;101131.66;4963959;28;20038;-64
2023/01/20 02:37:50;;;;;;;54.70;18.15;;;;;;;-0.23;100.00;101125.66;4963070;28;20105;-64
2023/01/20 02:40:31;;;;;;;58.33;19.58;;;;;;;-0.22;100.00;101133.44;5011000;28;20092;-64
2023/01/20 02:43:09;;;;;;;56.40;19.27;;;;;;;-0.23;100.00;101136.78;5024271;28;20108;-64
2023/01/20 02:45:44;;;;;;;51.90;17.40;;;;;;;-0.22;100.00;101137.66;5022716;28;20026;-64
2023/01/20 02:48:34;;;;;;;49.80;17.05;;;;;;;-0.24;100.00;101127.31;5024151;28;20025;-64
2023/01/20 02:51:10;;;;;;;54.35;18.70;;;;;;;-0.22;100.00;101124.84;5025138;28;20033;-64
2023/01/20 02:53:51;;;;;;;47.22;16.75;;;;;;;-0.24;100.00;101124.75;5023895;28;20033;-64
2023/01/20 02:56:21;;;;;;;52.15;17.55;;;;;;;-0.26;100.00;101134.00;5022818;28;20478;-64
2023/01/20 02:58:47;;;;;;;;;;;;;;;-0.26;100.00;101136.56;5023365;28;20030;-64
2023/01/20 03:01:19;;;;;;;49.38;16.75;;;;;;;-0.30;100.00;101139.69;5023878;28;19920;-64
2023/01/20 03:03:48;;;;;;;49.80;17.73;;;;;;;-0.30;100.00;101131.13;5024772;28;20072;-64
2023/01/20 03:06:17;;;;;;;53.97;17.45;;;;;;;-0.30;100.00;101128.56;5023278;28;20071;-64
2023/01/20 03:08:49;;;;;;;49.33;16.88;;;;;;;-0.30;100.00;101129.44;5023192;28;20041;-65
2023/01/20 03:11:14;;;;;;;50.80;17.50;;;;;;;-0.28;100.00;101132.09;5024524;28;20483;-63
2023/01/20 03:13:52;;;;;;;51.50;18.40;;;;;;;-0.29;100.00;101127.75;5024473;28;20029;-64
2023/01/20 03:16:20;;;;;;;49.90;17.55;;;;;;;-0.31;100.00;101130.22;5022745;28;20029;-65
2023/01/20 03:18:46;;;;;;;55.60;17.70;;;;;;;-0.31;100.00;101132.78;5023529;28;20025;-64
2023/01/20 03:21:12;;;;;;;46.97;17.33;;;;;;;-0.32;100.00;101141.22;5039862;28;20275;-64
2023/01/20 03:23:43;;;;;;;49.28;17.00;;;;;;;-0.34;100.00;101152.16;5023831;28;20025;-64
2023/01/20 03:26:11;;;;;;;53.90;17.52;;;;;;;-0.35;100.00;101151.25;5023709;28;20433;-64
2023/01/20 03:28:37;;;;;;;52.25;17.38;;;;;;;-0.36;100.00;101150.38;5023271;28;20717;-64
2023/01/20 03:31:11;;;;;;;48.03;16.42;;;;;;;-0.37;100.00;101155.38;5022801;28;20029;-64
2023/01/20 03:33:38;;;;;;;56.65;18.15;;;;;;;-0.39;100.00;101157.84;5023473;28;20024;-64
2023/01/20 03:36:03;;;;;;;52.28;17.77;;;;;;;-0.39;100.00;101160.38;5023738;28;20033;-67
2023/01/20 03:38:29;;;;;;;49.58;16.35;;;;;;;-0.38;100.00;101151.03;5022383;28;20048;-68
2023/01/20 03:41:06;;;;;;;48.13;17.02;;;;;;;-0.36;100.00;101152.94;5022185;28;20045;-68
2023/01/20 03:44:04;;;;;;;49.30;16.58;;;;;;;-0.33;100.00;101154.81;5023307;28;20069;-68
2023/01/20 03:46:35;;;;;;;53.85;16.88;;;;;;;-0.33;100.00;101162.50;5022107;28;20025;-68
2023/01/20 03:49:12;;;;;;;49.50;17.10;;;;;;;-0.32;100.00;101158.25;5022674;28;20594;-68
2023/01/20 03:51:55;;;;;;;51.00;16.85;;;;;;;-0.32;100.00;101164.25;5024184;28;20022;-68
2023/01/20 03:54:25;;;;;;;52.25;16.45;;;;;;;-0.30;100.00;101165.28;5023789;28;20082;-68
2023/01/20 03:57:06;;;;;;;48.30;16.38;;;;;;;-0.30;100.00;101167.84;5021820;28;20037;-68
2023/01/20 03:59:34;;;;;;;49.50;17.20;;;;;;;-0.28;100.00;101165.41;5022990;28;20021;-68
2023/01/20 04:02:05;;;;;;;51.33;17.27;;;;;;;-0.30;100.00;101160.16;5023459;28;20140;-68
2023/01/20 04:04:34;;;;;;;50.05;17.52;;;;;;;-0.30;100.00;101160.16;5022094;28;20213;-68
2023/01/20 04:07:00;;;;;;;52.75;17.23;;;;;;;-0.28;100.00;101158.59;5023138;28;20032;-68
2023/01/20 04:09:30;;;;;;;55.05;19.25;;;;;;;-0.28;100.00;101155.16;5024267;28;20021;-68
2023/01/20 04:11:55;;;;;;;57.97;18.85;;;;;;;-0.29;100.00;101167.09;5023464;28;20391;-68
2023/01/20 04:14:21;;;;;;;56.35;19.02;;;;;;;-0.31;100.00;101160.94;5023761;28;20025;-68
2023/01/20 04:16:56;;;;;;;53.50;18.17;;;;;;;-0.31;100.00;101165.19;5023333;28;20104;-68
2023/01/20 04:19:21;;;;;;;57.50;19.35;;;;;;;-0.31;100.00;101170.31;5023852;28;20094;-68
2023/01/20 04:22:03;;;;;;;59.25;18.85;;;;;;;-0.32;100.00;101163.38;5023921;28;20037;-68
2023/01/20 04:24:39;;;;;;;61.45;20.10;;;;;;;-0.35;100.00;101164.03;5022899;28;20029;-68
2023/01/20 04:27:05;;;;;;;62.70;20.35;;;;;;;-0.34;100.00;101165.84;5022447;28;20051;-68
2023/01/20 04:29:30;;;;;;;58.42;20.23;;;;;;;-0.34;100.00;101167.53;5023093;28;20679;-68
2023/01/20 04:31:59;;;;;;;60.20;20.02;;;;;;;-0.38;100.00;101159.63;5023207;28;20041;-68
2023/01/20 04:34:25;;;;;;;;;;;;;;;-0.35;100.00;101164.03;5022465;28;20044;-68
2023/01/20 04:36:50;;;;;;;56.67;18.02;;;;;;;-0.37;100.00;101173.31;5021649;28;20367;-68
2023/01/20 04:39:15;;;;;;;58.05;19.55;;;;;;;-0.40;100.00;101173.97;5022090;28;20091;-68
2023/01/20 04:41:41;;;;;;;51.80;18.55;;;;;;;-0.38;100.00;101176.63;5021362;28;20058;-68
2023/01/20 04:44:06;;;;;;;55.55;18.33;;;;;;;-0.38;100.00;101171.50;5017050;28;20041;-68
2023/01/20 04:46:31;;;;;;;59.30;18.90;;;;;;;-0.39;100.00;101177.41;5023050;28;20032;-68
2023/01/20 04:48:56;;;;;;;57.20;18.50;;;;;;;-0.39;100.00;101169.72;5023066;28;20022;-68
2023/01/20 04:51:22;;;;;;;50.92;18.83;;;;;;;-0.40;100.00;101181.63;5021773;28;20028;-68
2023/01/20 04:53:47;;;;;;;54.85;19.02;;;;;;;-0.40;100.00;101188.44;5021516;28;20076;-68
2023/01/20 04:56:14;;;;;;;55.45;18.38;;;;;;;-0.43;100.00;101185.66;5021387;28;20120;-68
2023/01/20 04:58:40;;;;;;;57.38;18.58;;;;;;;-0.45;100.00;101189.75;5019579;28;20061;-68
2023/01/20 05:01:05;;;;;;;56.80;19.33;;;;;;;-0.46;100.00;101186.31;5020456;28;20033;-68
2023/01/20 05:03:30;;;;;;;53.03;17.98;;;;;;;-0.48;100.00;101185.31;5021934;28;20026;-68
2023/01/20 05:05:55;;;;;;;57.47;19.02;;;;;;;-0.47;100.00;101187.09;5021740;28;20043;-68
2023/01/20 05:08:21;;;;;;;54.95;19.25;;;;;;;-0.43;100.00;101188.22;5021459;28;20042;-68
2023/01/20 05:10:47;;;;;;;55.25;18.52;;;;;;;-0.41;100.00;101186.66;5022212;28;20100;-68
2023/01/20 05:13:12;;;;;;;56.70;17.75;;;;;;;-0.39;100.00;101191.13;5022635;28;20491;-68
2023/01/20 05:15:38;;;;;;;54.50;19.33;;;;;;;-0.38;100.00;101186.88;5022947;28;20068;-68
2023/01/20 05:18:04;;;;;;;55.58;18.65;;;;;;;-0.38;100.00;101185.22;5022881;28;20052;-68
2023/01/20 05:20:29;;;;;;;58.10;18.20;;;;;;;-0.37;100.00;101189.53;5021363;28;20467;-68
2023/01/20 05:22:54;;;;;;;60.42;19.55;;;;;;;-0.36;100.00;101195.56;5020940;28;20037;-68
2023/01/20 05:25:20;;;;;;;60.00;19.45;;;;;;;-0.35;100.00;101205.00;5023537;28;20061;-68
2023/01/20 05:27:45;;;;;;;55.28;18.10;;;;;;;-0.35;100.00;101207.56;5021997;28;20115;-68
2023/01/20 05:30:11;;;;;;;58.10;19.63;;;;;;;-0.37;100.00;101204.03;5022724;28;20033;-68
2023/01/20 05:32:36;;;;;;;53.58;18.13;;;;;;;-0.40;100.00;101198.69;5022171;28;20557;-68
2023/01/20 05:35:01;;;;;;;51.20;19.05;;;;;;;-0.40;100.00;101201.25;5022674;28;20378;-68
2023/01/20 05:37:27;;;;;;;61.33;19.88;;;;;;;-0.41;100.00;101199.44;5020584;28;20468;-68
2023/01/20 05:39:52;;;;;;;54.60;17.77;;;;;;;-0.41;100.00;101202.00;5023200;28;20025;-68
2023/01/20 05:42:17;;;;;;;56.75;18.75;;;;;;;-0.43;100.00;101203.59;5020899;28;20033;-68
2023/01/20 05:44:42;;;;;;;56.47;18.70;;;;;;;-0.43;100.00;101203.59;5021588;28;20519;-68
2023/01/20 05:47:08;;;;;;;55.60;18.33;;;;;;;-0.44;100.00;101196.66;5021373;28;20034;-68
2023/01/20 05:49:33;;;;;;;57.25;18.48;;;;;;;-0.45;100.00;101203.47;5021668;28;20435;-68
2023/01/20 05:51:58;;;;;;;52.80;18.05;;;;;;;-0.44;100.00;101202.66;5024061;28;20561;-68
2023/01/20 05:54:25;;;;;;;53.63;18.10;;;;;;;-0.46;100.00;101209.38;5023269;28;20029;-68
2023/01/20 05:56:51;;;;;;;52.20;17.60;;;;;;;-0.46;100.00;101211.03;5025554;28;20117;-69
2023/01/20 05:59:16;;;;;;;54.10;20.13;;;;;;;-0.46;100.00;101201.69;5026144;28;20120;-68
2023/01/20 06:01:41;;;;;;;51.05;17.00;;;;;;;-0.43;100.00;101208.69;5025664;28;20041;-68
2023/01/20 06:04:06;;;;;;;54.15;18.92;;;;;;;-0.42;100.00;101210.47;5025271;28;20056;-68
2023/01/20 06:06:32;;;;;;;56.80;17.80;;;;;;;-0.42;100.00;101213.94;5026309;28;20065;-68
2023/01/20 06:08:57;;;;;;;51.60;17.40;;;;;;;-0.39;100.00;101220.91;5026569;28;20032;-68
2023/01/20 06:11:23;;;;;;;52.63;17.60;;;;;;;-0.38;100.00;101217.59;5024636;28;20407;-68
2023/01/20 06:13:49;;;;;;;51.40;17.70;;;;;;;-0.37;100.00;101217.69;5025462;28;20100;-68
2023/01/20 06:16:16;;;;;;;48.58;17.00;;;;;;;-0.35;100.00;101220.38;5025113;28;20037;-68
2023/01/20 06:18:42;;;;;;;49.33;17.38;;;;;;;-0.35;100.00;101222.94;5025315;28;20044;-68
2023/01/20 06:21:07;;;;;;;51.35;18.17;;;;;;;-0.34;100.00;101224.72;5041829;28;20427;-68
2023/01/20 06:23:32;;;;;;;48.72;17.15;;;;;;;-0.36;100.00;101216.06;5024586;28;20037;-68
2023/01/20 06:26:04;;;;;;;59.40;17.75;;;;;;;-0.33;100.00;101223.97;5025174;28;20022;-68
2023/01/20 06:28:31;;;;;;;50.33;16.77;;;;;;;-0.33;100.00;101226.50;5024637;28;20067;-68
2023/01/20 06:31:05;;;;;;;44.78;16.23;;;;;;;-0.31;100.00;101229.19;5023418;28;20021;-68
2023/01/20 06:33:31;;;;;;;49.13;17.20;;;;;;;-0.33;100.00;101223.97;5023860;28;20440;-68
2023/01/20 06:35:57;;;;;;;48.35;16.70;;;;;;;-0.32;100.00;101224.84;5023785;28;20510;-68
2023/01/20 06:38:24;;;;;;;49.78;16.23;;;;;;;-0.33;100.00;101229.06;5022628;28;20128;-68
2023/01/20 06:40:50;;;;;;;56.10;17.95;;;;;;;-0.32;100.00;101225.72;5023242;28;20030;-68
2023/01/20 06:43:15;;;;;;;54.78;17.77;;;;;;;-0.33;100.00;101213.72;5024964;28;20057;-68
2023/01/20 06:45:40;;;;;;;52.10;17.42;;;;;;;-0.34;100.00;101211.94;5023516;28;20032;-68
2023/01/20 06:48:06;;;;;;;47.22;17.10;;;;;;;-0.33;100.00;101213.72;5025539;28;20029;-68
2023/01/20 06:50:31;;;;;;;51.97;17.50;;;;;;;-0.34;100.00;101208.50;5024672;28;20100;-68
2023/01/20 06:52:57;;;;;;;52.38;17.15;;;;;;;-0.35;100.00;101212.69;5025298;28;20514;-68
2023/01/20 06:55:22;;;;;;;56.30;17.08;;;;;;;-0.36;100.00;101221.19;5024152;28;20588;-68
2023/01/20 06:57:47;;;;;;;54.40;18.27;;;;;;;-0.38;100.00;101218.50;5024768;28;21490;-68
2023/01/20 07:00:13;;;;;;;52.22;17.00;;;;;;;-0.35;100.00;101228.06;5024593;28;20079;-68
2023/01/20 07:02:38;;;;;;;53.17;19.13;;;;;;;-0.34;100.00;101224.72;5022875;28;20052;-68
2023/01/20 07:05:06;;;;;;;47.78;16.70;;;;;;;-0.35;100.00;101215.25;5023839;28;20464;-68
2023/01/20 07:07:35;;;;;;;50.45;18.15;;;;;;;-0.36;100.00;101222.06;5023468;28;20139;-68
2023/01/20 07:10:01;;;;;;;52.75;18.30;;;;;;;-0.37;100.00;101215.16;5024256;28;20491;-68
2023/01/20 07:12:27;;;;;;;53.83;17.92;;;;;;;-0.36;100.00;101229.75;5023383;28;20171;-68
2023/01/20 07:14:52;;;;;;;51.47;18.42;;;;;;;-0.37;100.00;101225.38;5024431;28;20124;-68
2023/01/20 07:17:17;;;;;;;57.85;19.13;;;;;;;-0.36;100.00;101221.19;5022833;28;20068;-68
2023/01/20 07:19:43;;;;;;;52.05;17.50;;;;;;;-0.36;100.00;101224.63;5022419;28;20090;-68
2023/01/20 07:22:08;;;;;;;52.05;17.30;;;;;;;-0.37;100.00;101232.19;5024289;28;20040;-68
2023/01/20 07:24:33;;;;;;;48.88;17.15;;;;;;;-0.38;100.00;101233.88;5023770;28;20383;-68
2023/01/20 07:26:59;;;;;;;50.13;17.83;;;;;;;-0.37;100.00;101239.88;5023856;28;20086;-68
2023/01/20 07:29:25;;;;;;;50.10;17.23;;;;;;;-0.37;100.00;101234.75;5023973;28;20040;-68
2023/01/20 07:31:50;;;;;;;49.90;16.58;;;;;;;-0.35;100.00;101240.84;5021531;28;20029;-68
2023/01/20 07:34:16;;;;;;;53.50;17.23;;;;;;;-0.36;100.00;101250.22;5024140;28;20025;-68
2023/01/20 07:36:41;;;;;;;53.33;17.35;;;;;;;-0.35;100.00;101248.53;5022476;28;20021;-68
2023/01/20 07:39:09;;;;;;;49.30;17.17;;;;;;;-0.36;100.00;101249.34;5021957;28;20022;-68
2023/01/20 07:41:34;;;;;;;50.17;17.05;;;;;;;-0.34;100.00;101257.13;5023761;28;20117;-68
2023/01/20 07:43:59;;;;;;;48.72;16.73;;;;;;;-0.33;100.00;101262.38;5021539;28;20025;-68
2023/01/20 07:46:25;;;;;;;43.83;15.65;;;;;;;-0.31;100.00;101263.34;5023140;28;20399;-68
2023/01/20 07:48:50;;;;;;;48.92;17.30;;;;;;;-0.31;100.00;101263.34;5021510;28;20026;-68
2023/01/20 07:51:16;;;;;;;50.85;18.10;;;;;;;-0.29;100.00;101266.03;5023602;28;20033;-68
2023/01/20 07:53:47;;;;;;;44.75;16.33;;;;;;;-0.28;100.00;101270.38;5022664;28;20065;-68
2023/01/20 07:56:17;;;;;;;49.53;16.67;;;;;;;-0.29;100.00;101268.59;5021127;28;20122;-68
2023/01/20 07:58:44;;;;;;;49.50;17.75;;;;;;;-0.27;100.00;101272.16;5023361;28;20033;-68
2023/01/20 08:01:21;;;;;;;43.05;16.10;;;;;;;-0.28;100.00;101267.81;5019439;28;20072;-68
2023/01/20 08:03:47;;;;;;;44.38;16.00;;;;;;;-0.28;100.00;101270.38;5022150;28;20034;-68
2023/01/20 08:06:16;;;;;;;45.75;16.10;;;;;;;-0.29;100.00;101269.50;5021467;28;20057;-68
2023/01/20 08:08:41;;;;;;;55.00;21.35;;;;;;;-0.28;100.00;101275.50;5024491;28;20049;-68
2023/01/20 08:11:10;;;;;;;49.65;19.30;;;;;;;-0.28;100.00;101270.38;5022346;28;20491;-68
2023/01/20 08:13:35;;;;;;;52.00;21.52;;;;;;;-0.28;100.00;101271.25;5020369;28;20041;-68
2023/01/20 08:16:03;;;;;;;53.35;19.55;;;;;;;-0.28;100.00;101276.38;5022528;28;20076;-69
2023/01/20 08:18:31;;;;;;;58.38;23.92;;;;;;;-0.28;100.00;101278.94;5023831;28;20025;-68
2023/01/20 08:20:56;;;;;;;46.80;17.63;;;;;;;-0.27;100.00;101277.28;5022935;28;20057;-68
2023/01/20 08:23:22;;;;;;;48.35;18.95;;;;;;;-0.28;100.00;101276.38;5024353;28;20603;-68
2023/01/20 08:25:47;;;;;;;53.85;22.73;;;;;;;-0.28;100.00;101280.63;5020541;28;20025;-68
2023/01/20 08:28:12;;;;;;;50.92;17.98;;;;;;;-0.29;100.00;101279.75;5023617;28;20033;-68
2023/01/20 08:30:38;;;;;;;48.85;17.23;;;;;;;-0.29;100.00;101283.94;5023500;28;20033;-68
2023/01/20 08:33:03;;;;;;;50.95;16.73;;;;;;;-0.31;100.00;101281.28;5023535;28;20029;-68
2023/01/20 08:35:28;;;;;;;45.45;16.42;;;;;;;-0.30;100.00;101277.06;5023737;28;20033;-68
2023/01/20 08:37:54;;;;;;;48.05;17.55;;;;;;;-0.32;100.00;101276.91;5023598;28;20091;-68
2023/01/20 08:40:19;;;;;;;46.05;16.10;;;;;;;-0.32;100.00;101283.72;5023035;28;20045;-68
2023/01/20 08:42:44;;;;;;;43.97;15.50;;;;;;;-0.33;100.00;101281.94;5022589;28;20392;-68
2023/01/20 08:45:10;;;;;;;36.80;14.25;;;;;;;-0.33;100.00;101280.28;5023967;28;20125;-68
2023/01/20 08:47:38;;;;;;;43.88;16.75;;;;;;;-0.32;100.00;101281.16;5022408;28;20026;-68
2023/01/20 08:50:05;;;;;;;49.63;24.02;;;;;;;-0.32;100.00;101278.59;5023782;28;20026;-68
2023/01/20 08:52:31;;;;;;;44.88;18.17;;;;;;;-0.31;100.00;101288.06;5020229;28;20041;-68
2023/01/20 08:54:57;;;;;;;44.20;18.27;;;;;;;-0.31;100.00;101281.28;5020412;28;20542;-68
2023/01/20 08:57:25;;;;;;;50.17;22.20;;;;;;;-0.29;100.00;101294.19;5022565;28;20068;-68
2023/01/20 08:59:52;;;;;;;44.05;17.83;;;;;;;-0.28;100.00;101289.19;5021063;28;20025;-68
2023/01/20 09:02:17;;;;;;;43.00;17.13;;;;;;;-0.27;100.00;101288.41;5021047;28;20049;-68
2023/01/20 09:04:43;;;;;;;52.67;22.33;;;;;;;-0.25;100.00;101298.78;5023728;28;20034;-68
2023/01/20 09:07:11;;;;;;;50.03;19.92;;;;;;;-0.24;100.00;101292.88;5023561;28;20120;-68
2023/01/20 09:09:38;;;;;;;51.45;21.35;;;;;;;-0.24;100.00;101300.56;5020950;28;20108;-68
2023/01/20 09:12:04;;;;;;;39.72;17.08;;;;;;;-0.24;100.00;101303.13;5023621;28;20569;-68
2023/01/20 09:14:29;;;;;;;43.00;17.10;;;;;;;-0.24;100.00;101300.56;5020049;28;20029;-68
2023/01/20 09:16:55;;;;;;;40.00;15.02;;;;;;;-0.24;100.00;101301.44;5023141;28;20373;-68
2023/01/20 09:19:21;;;;;;;42.75;16.95;;;;;;;-0.25;100.00;101301.31;5022779;28;20060;-68
2023/01/20 09:21:46;;;;;;;40.03;15.07;;;;;;;-0.26;100.00;101305.56;5023348;28;20044;-68
2023/01/20 09:24:11;;;;;;;41.17;15.30;;;;;;;-0.26;100.00;101305.56;5024318;28;20298;-67
2023/01/20 09:26:39;;;;;;;40.10;14.70;;;;;;;-0.26;100.00;101309.78;5025265;28;20449;-67
2023/01/20 09:29:08;;;;;;;40.72;15.43;;;;;;;-0.28;100.00;101316.47;5024935;28;20138;-67
2023/01/20 09:31:39;;;;;;;36.33;13.27;;;;;;;-0.30;100.00;101313.78;5025669;28;20472;-67
2023/01/20 09:34:04;;;;;;;40.97;16.05;;;;;;;-0.29;100.00;101319.78;5025606;28;20211;-67
2023/01/20 09:36:30;;;;;;;39.28;14.65;;;;;;;-0.27;100.00;101318.25;5025326;28;20041;-67
2023/01/20 09:45:02;;;;;;;40.13;14.45;;;;;;;-0.23;100.00;101316.03;5023930;28;20083;-67
2023/01/20 09:47:30;;;;;;;57.33;29.60;;;;;;;-0.23;100.00;101320.28;5001735;28;20065;-67
2023/01/20 09:55:54;;;;;;;58.22;24.00;;;;;;;-0.21;100.00;101317.03;4959538;28;20412;-67
2023/01/20 09:58:25;;;;;;;46.88;21.33;;;;;;;-0.19;100.00;101317.13;5017041;28;20120;-67
2023/01/20 10:01:06;;;;;;;36.35;16.67;;;;;;;-0.21;100.00;101321.28;5021662;28;20041;-67
2023/01/20 10:03:35;;;;;;;41.03;16.85;;;;;;;-0.24;100.00;101319.38;5025424;28;20032;-67
2023/01/20 10:06:07;;;;;;;41.55;16.90;;;;;;;-0.26;100.00;101312.34;5025117;28;20068;-67
2023/01/20 10:08:40;;;;;;;35.30;14.77;;;;;;;-0.25;100.00;101311.56;5026127;28;20423;-67
2023/01/20 10:11:13;;;;;;;30.70;13.00;;;;;;;-0.27;100.00;101311.47;5024697;28;20026;-67
2023/01/20 10:13:57;;;;;;;30.92;13.50;;;;;;;-0.28;100.00;101301.97;5026305;28;20037;-67
2023/01/20 10:16:30;;;;;;;33.78;13.57;;;;;;;-0.28;100.00;101301.09;5024260;28;20524;-67
2023/01/20 10:19:04;;;;;;;32.80;12.25;;;;;;;-0.29;100.00;101313.03;5025664;28;20057;-67
2023/01/20 10:21:58;;;;;;;29.08;11.40;;;;;;;-0.28;100.00;101308.78;5025545;28;20487;-67
2023/01/20 10:24:31;;;;;;;29.45;12.68;;;;;;;-0.29;100.00;101320.72;5025384;28;20471;-66
2023/01/20 10:26:59;;;;;;;29.35;11.32;;;;;;;-0.31;100.00;101317.13;5025789;28;20057;-66
2023/01/20 10:29:43;;;;;;;27.25;10.68;;;;;;;-0.30;100.00;101313.78;5022477;28;20040;-66
2023/01/20 10:32:31;;;;;;;28.75;10.85;;;;;;;-0.30;100.00;101312.91;5026312;28;20025;-66
2023/01/20 10:34:58;;;;;;;27.77;11.02;;;;;;;-0.30;100.00;101306.13;5026224;28;20075;-66
2023/01/20 10:37:24;;;;;;;24.58;10.40;;;;;;;-0.29;100.00;101310.47;5023147;28;20505;-63
2023/01/20 10:40:00;;;;;;;25.15;9.65;;;;;;;-0.30;100.00;101303.56;5022955;28;20075;-62
2023/01/20 10:42:27;;;;;;;23.25;9.00;;;;;;;-0.28;100.00;101306.22;5024455;28;20029;-63
2023/01/20 10:44:53;;;;;;;24.52;9.90;;;;;;;-0.29;100.00;101309.56;5025564;28;20021;-63
2023/01/20 10:47:42;;;;;;;24.10;9.60;;;;;;;-0.28;100.00;101312.22;5024362;28;20057;-63
2023/01/20 10:50:13;;;;;;;;;;;;;;;-0.25;100.00;101309.00;5026009;28;20021;-63
2023/01/20 10:53:06;;;;;;;23.35;9.88;;;;;;;-0.26;100.00;101304.66;5023963;28;19921;-62
2023/01/20 10:55:31;;;;;;;20.85;8.63;;;;;;;-0.24;100.00;101309.13;5025910;28;20036;-63
2023/01/20 10:58:21;;;;;;;22.35;9.02;;;;;;;-0.23;100.00;101307.47;5023022;28;20021;-62
2023/01/20 11:00:48;;;;;;;23.58;9.25;;;;;;;-0.21;100.00;101305.91;5023572;28;20109;-63
2023/01/20 11:03:17;;;;;;;21.08;8.38;;;;;;;-0.22;100.00;101304.13;5024193;28;20445;-62
2023/01/20 11:05:45;;;;;;;21.58;9.50;;;;;;;-0.22;100.00;101307.59;5024681;28;20120;-63
2023/01/20 11:08:20;;;;;;;22.60;9.32;;;;;;;-0.21;100.00;101311.03;5024409;28;20060;-62
2023/01/20 11:10:48;;;;;;;23.45;9.13;;;;;;;-0.19;100.00;101317.13;5025620;28;20026;-62
2023/01/20 11:13:13;;;;;;;21.25;9.05;;;;;;;-0.16;100.00;101313.94;5024866;28;20029;-62
2023/01/20 11:16:17;;;;;;;24.33;9.68;;;;;;;-0.13;100.00;101317.63;5024665;28;20044;-62
2023/01/20 11:18:54;;;;;;;34.13;14.57;;;;;;;-0.11;100.00;101308.38;5021640;28;20138;-63
2023/01/20 11:21:23;;;;;;;26.60;11.65;;;;;;;-0.09;100.00;101319.59;5022015;28;20029;-62